Time;durP1;ratioP1;P1;durP2;ratioP2;P2;SDS_P1;SDS_P2;PMS_P1;PMS_P2;Temp;Humidity;BMP_temperature;BMP_pressure;BME280_temperature;BME280_humidity;BME280_pressure;Samples;Min_cycle;Max_cycle;Signal;HPM_P1;HPM_P2
2023/05/22 00:04:21;;;;;;;;;;;;;;;11.24;63.34;101931.19;107383;1254;124634;-90
2023/05/22 00:06:55;;;;;;;;;;;;;;;11.21;63.42;101928.25;107481;1254;72266;-90
2023/05/22 00:09:58;;;;;;;;;;;;;;;11.19;63.58;101927.63;107366;1254;123717;-90
2023/05/22 00:12:32;;;;;;;;;;;;;;;11.18;63.75;101930.58;107381;1255;72718;-90
2023/05/22 00:15:13;;;;;;;;;;;;;;;11.16;63.79;101925.41;107294;1256;124725;-90
2023/05/22 00:17:41;;;;;;;;;;;;;;;11.16;63.88;101928.90;107236;1254;273577;-90
2023/05/22 00:20:22;;;;;;;;;;;;;;;11.15;64.05;101926.05;107264;1254;125389;-90
2023/05/22 00:22:56;;;;;;;;;;;;;;;11.15;64.19;101926.96;107216;1254;65839;-90
2023/05/22 00:25:31;;;;;;;;;;;;;;;11.16;64.22;101920.66;107634;1254;71406;-90
2023/05/22 00:28:12;;;;;;;;;;;;;;;11.16;64.36;101922.98;107634;1253;124824;-90
2023/05/22 00:30:46;;;;;;;;;;;;;;;11.18;64.39;101918.30;107525;1254;60469;-90
2023/05/22 00:33:21;;;;;;;;;;;;;;;11.20;64.44;101919.06;107434;1254;124767;-90
2023/05/22 00:36:03;;;;;;;;;;;;;;;11.21;64.52;101918.77;107602;1257;64993;-91
2023/05/22 00:38:35;;;;;;;;;;;;;;;11.23;64.45;101917.60;107399;1254;124999;-90
2023/05/22 00:41:02;;;;;;;;;;;;;;;11.23;64.56;101916.39;107368;1256;62245;-90
2023/05/22 00:43:29;;;;;;;;;;;;;;;11.24;64.59;101917.64;107344;1254;60010;-90
2023/05/22 00:46:23;;;;;;;;;;;;;;;11.24;64.62;101913.63;107448;1254;124796;-90
2023/05/22 00:48:52;;;;;;;;;;;;;;;11.25;64.67;101913.14;107479;1254;67616;-90
2023/05/22 00:51:31;;;;;;;;;;;;;;;11.26;64.64;101908.80;107305;1254;124722;-90
2023/05/22 00:54:11;;;;;;;;;;;;;;;11.26;64.73;101905.45;107316;1256;59968;-89
2023/05/22 00:56:44;;;;;;;;;;;;;;;11.27;64.73;101910.07;107420;1254;124985;-89
2023/05/22 00:59:17;;;;;;;;;;;;;;;11.27;64.72;101906.73;107477;1254;74532;-89
2023/05/22 01:01:47;;;;;;;;;;;;;;;11.28;64.81;101908.33;107369;1254;65731;-89
2023/05/22 01:04:34;;;;;;;;;;;;;;;11.26;64.85;101906.16;107421;1254;124573;-90
2023/05/22 01:07:16;;;;;;;;;;;;;;;11.26;64.93;101910.91;107340;1257;61410;-91
2023/05/22 01:10:03;;;;;;;;;;;;;;;11.26;64.89;101915.83;107199;1256;124907;-91
2023/05/22 01:15:58;;;;;;;;;;;;;;;11.30;65.02;101908.23;107431;1256;124770;-91
2023/05/22 01:18:57;;;;;;;;;;;;;;;11.31;65.02;101903.52;107590;1253;72684;-91
2023/05/22 01:21:45;;;;;;;;;;;;;;;11.30;65.01;101905.40;107398;1259;124919;-90
2023/05/22 01:24:34;;;;;;;;;;;;;;;11.27;65.10;101903.92;107436;1259;60322;-89
2023/05/22 01:27:24;;;;;;;;;;;;;;;11.27;65.13;101903.02;107576;1259;124339;-89
2023/05/22 01:30:18;;;;;;;;;;;;;;;11.27;65.11;101900.05;107808;1254;67080;-89
2023/05/22 01:32:52;;;;;;;;;;;;;;;11.26;65.15;101904.59;107404;1254;124327;-89
2023/05/22 01:35:48;;;;;;;;;;;;;;;11.25;65.19;101908.41;107549;1254;60464;-88
2023/05/22 01:38:17;;;;;;;;;;;;;;;11.22;65.19;101903.86;107689;1254;124717;-89
2023/05/22 01:40:45;;;;;;;;;;;;;;;11.18;65.23;101905.11;107569;1253;74612;-89
2023/05/22 01:43:18;;;;;;;;;;;;;;;11.14;65.39;101902.66;107474;1254;66323;-89
2023/05/22 01:52:40;;;;;;;;;;;;;;;11.08;65.57;101904.36;107501;1254;61107;-88
2023/05/22 01:55:16;;;;;;;;;;;;;;;11.06;65.63;101903.56;107327;1254;73447;-88
2023/05/22 01:58:21;;;;;;;;;;;;;;;11.04;65.69;101902.59;107265;1254;124924;-87
2023/05/22 02:00:48;;;;;;;;;;;;;;;11.01;65.71;101902.14;106944;1262;72735;-86
2023/05/22 02:06:37;;;;;;;;;;;;;;;10.95;65.88;101900.65;107745;1253;61334;-87
2023/05/22 02:09:03;;;;;;;;;;;;;;;10.93;65.93;101902.69;107624;1254;124063;-87
2023/05/22 02:11:33;;;;;;;;;;;;;;;10.92;66.04;101906.67;107477;1254;65813;-87
2023/05/22 02:14:16;;;;;;;;;;;;;;;10.91;66.07;101910.15;107433;1254;124439;-87
2023/05/22 02:16:49;;;;;;;;;;;;;;;10.90;66.08;101909.23;107352;1253;60917;-88
2023/05/22 02:19:20;;;;;;;;;;;;;;;10.89;66.16;101907.09;107387;1256;59996;-88
2023/05/22 02:21:56;;;;;;;;;;;;;;;10.88;66.15;101904.04;107251;1256;124086;-93
2023/05/22 02:24:25;;;;;;;;;;;;;;;10.86;66.34;101899.91;107480;1256;66344;-89
2023/05/22 02:27:01;;;;;;;;;;;;;;;10.85;66.47;101898.98;107173;1256;124052;-90
2023/05/22 02:29:45;;;;;;;;;;;;;;;10.85;66.51;101897.41;107299;1257;60552;-90
2023/05/22 02:32:24;;;;;;;;;;;;;;;10.85;66.58;101899.73;107243;1255;124410;-89
2023/05/22 02:35:00;;;;;;;;;;;;;;;10.87;66.63;101900.51;107434;1256;75079;-89
2023/05/22 02:37:27;;;;;;;;;;;;;;;10.89;66.66;101902.52;107416;1256;66082;-89
2023/05/22 02:39:57;;;;;;;;;;;;;;;10.93;66.71;101899.83;107284;1256;124423;-88
2023/05/22 02:42:36;;;;;;;;;;;;;;;10.96;66.75;101897.20;107391;1256;60061;-88
2023/05/22 02:45:11;;;;;;;;;;;;;;;11.00;66.79;101898.38;107135;1255;124271;-88
2023/05/22 02:47:39;;;;;;;;;;;;;;;11.04;66.78;101899.79;107455;1257;74707;-88
2023/05/22 02:50:30;;;;;;;;;;;;;;;11.08;66.75;101898.92;107365;1256;124646;-88
2023/05/22 02:52:58;;;;;;;;;;;;;;;11.14;66.80;101891.61;107409;1254;72676;-89
2023/05/22 02:55:31;;;;;;;;;;;;;;;11.19;66.83;101887.75;107387;1255;60998;-88
2023/05/22 03:01:25;;;;;;;;;;;;;;;11.36;66.86;101881.77;107596;1259;74433;-89
2023/05/22 03:04:00;;;;;;;;;;;;;;;11.49;66.78;101882.61;107429;1256;124976;-89
2023/05/22 03:06:31;;;;;;;;;;;;;;;11.61;66.71;101881.88;107285;1256;71353;-88
2023/05/22 03:09:13;;;;;;;;;;;;;;;11.74;66.65;101881.13;107329;1255;124744;-90
2023/05/22 03:11:40;;;;;;;;;;;;;;;11.87;66.50;101882.17;107363;1257;62239;-89
2023/05/22 03:14:09;;;;;;;;;;;;;;;12.00;66.33;101882.17;107472;1254;125483;-90
2023/05/22 03:16:42;;;;;;;;;;;;;;;12.16;66.29;101880.97;107501;1260;65758;-89
2023/05/22 03:19:10;;;;;;;;;;;;;;;12.31;66.07;101877.30;107411;1254;71328;-89
2023/05/22 03:21:40;;;;;;;;;;;;;;;12.45;65.93;101875.51;107356;1254;124763;-90
2023/05/22 03:24:13;;;;;;;;;;;;;;;12.62;65.86;101873.27;107202;1256;60550;-90
2023/05/22 03:27:00;;;;;;;;;;;;;;;12.78;65.63;101874.35;107186;1253;125000;-89
2023/05/22 03:29:43;;;;;;;;;;;;;;;13.01;65.54;101875.13;107319;1254;65703;-90
2023/05/22 03:32:11;;;;;;;;;;;;;;;13.32;65.23;101872.43;107365;1254;124947;-90
2023/05/22 03:34:45;;;;;;;;;;;;;;;13.58;64.99;101872.37;107340;1257;60352;-90
2023/05/22 03:37:21;;;;;;;;;;;;;;;13.85;64.64;101874.75;107366;1253;61183;-89
2023/05/22 03:40:00;;;;;;;;;;;;;;;14.20;64.50;101873.65;107424;1256;125119;-90
2023/05/22 03:42:27;;;;;;;;;;;;;;;14.75;64.36;101871.11;107389;1254;67062;-88
2023/05/22 03:45:17;;;;;;;;;;;;;;;15.36;64.07;101870.64;107326;1254;124490;-88
2023/05/22 03:47:45;;;;;;;;;;;;;;;16.32;63.59;101864.20;107344;1253;62005;-87
2023/05/22 03:50:20;;;;;;;;;;;;;;;17.16;62.62;101861.44;107372;1254;124495;-88
2023/05/22 03:52:49;;;;;;;;;;;;;;;18.05;61.62;101863.40;107390;1254;74437;-88
2023/05/22 03:55:16;;;;;;;;;;;;;;;18.94;60.49;101862.36;107614;1256;67250;-88
2023/05/22 03:57:46;;;;;;;;;;;;;;;19.72;59.24;101867.52;107305;1254;124431;-89
2023/05/22 04:00:20;;;;;;;;;;;;;;;20.52;58.08;101863.01;107609;1254;61289;-86
2023/05/22 04:03:01;;;;;;;;;;;;;;;21.29;56.58;101865.71;107628;1253;124055;-85
2023/05/22 04:05:35;;;;;;;;;;;;;;;21.79;55.32;101863.28;107114;1255;73874;-85
2023/05/22 04:08:08;;;;;;;;;;;;;;;22.52;54.64;101862.56;107224;1257;124257;-88
2023/05/22 04:10:45;;;;;;;;;;;;;;;23.16;53.26;101859.56;107287;1256;72657;-88
2023/05/22 04:13:13;;;;;;;;;;;;;;;23.76;52.26;101864.32;107206;1254;61448;-90
2023/05/22 04:16:04;;;;;;;;;;;;;;;24.30;51.20;101858.42;107372;1257;124658;-90
2023/05/22 04:19:03;;;;;;;;;;;;;;;24.93;49.88;101851.89;107545;1253;74601;-89
2023/05/22 04:22:03;;;;;;;;;;;;;;;25.40;48.57;101847.84;107395;1254;124057;-88
2023/05/22 04:24:31;;;;;;;;;;;;;;;25.91;47.65;101851.48;107279;1254;70618;-87
2023/05/22 04:27:13;;;;;;;;;;;;;;;26.49;46.94;101849.66;107300;1254;124092;-87
2023/05/22 04:29:49;;;;;;;;;;;;;;;27.23;46.07;101845.09;107353;1254;60415;-89
2023/05/22 04:32:22;;;;;;;;;;;;;;;27.99;45.23;101841.85;107556;1254;124977;-88
2023/05/22 04:34:51;;;;;;;;;;;;;;;28.87;44.28;101838.70;107381;1254;62328;-87
2023/05/22 04:37:19;;;;;;;;;;;;;;;29.57;43.01;101833.37;107492;1254;63882;-87
2023/05/22 04:39:46;;;;;;;;;;;;;;;30.15;42.10;101832.04;107468;1254;124178;-86
2023/05/22 04:42:21;;;;;;;;;;;;;;;30.57;40.97;101831.66;107317;1254;59987;-87
2023/05/22 04:44:51;;;;;;;;;;;;;;;30.73;40.22;101835.65;107172;1256;124234;-87
2023/05/22 04:47:40;;;;;;;;;;;;;;;30.69;39.47;101835.11;107465;1254;60353;-86
2023/05/22 04:50:15;;;;;;;;;;;;;;;30.58;38.84;101833.23;107588;1254;124234;-85
2023/05/22 04:52:56;;;;;;;;;;;;;;;31.02;38.69;101833.55;107447;1254;61323;-85
2023/05/22 04:55:35;;;;;;;;;;;;;;;31.72;37.92;101832.58;107559;1254;60339;-85
2023/05/22 04:58:19;;;;;;;;;;;;;;;32.17;36.91;101831.02;107403;1254;124242;-86
2023/05/22 05:00:58;;;;;;;;;;;;;;;32.51;36.34;101828.27;107521;1253;60258;-84
2023/05/22 05:03:25;;;;;;;;;;;;;;;32.49;35.51;101829.46;107714;1254;124606;-82
2023/05/22 05:05:55;;;;;;;;;;;;;;;32.20;35.07;101827.98;107393;1259;61756;-82
2023/05/22 05:08:34;;;;;;;;;;;;;;;31.95;34.88;101827.71;107389;1259;124256;-85
2023/05/22 05:11:07;;;;;;;;;;;;;;;32.12;34.90;101827.66;107460;1254;65208;-84
2023/05/22 05:13:41;;;;;;;;;;;;;;;32.62;34.34;101829.39;107403;1254;61240;-84
2023/05/22 05:16:14;;;;;;;;;;;;;;;32.95;34.08;101830.75;107722;1256;124249;-85
2023/05/22 05:18:43;;;;;;;;;;;;;;;33.12;33.32;101829.55;107472;1254;62216;-85
2023/05/22 05:21:10;;;;;;;;;;;;;;;32.51;32.86;101827.92;107229;1257;124136;-85
2023/05/22 05:23:56;;;;;;;;;;;;;;;32.29;33.20;101829.20;107370;1254;66039;-83
2023/05/22 05:26:23;;;;;;;;;;;;;;;32.46;33.04;101831.42;107155;1257;124873;-84
2023/05/22 05:28:50;;;;;;;;;;;;;;;32.40;32.86;101831.01;107637;1254;63919;-83
2023/05/22 05:31:18;;;;;;;;;;;;;;;32.78;33.07;101825.27;107316;1258;61400;-83
2023/05/22 05:33:56;;;;;;;;;;;;;;;33.09;32.34;101826.80;107537;1254;124413;-84
2023/05/22 05:36:24;;;;;;;;;;;;;;;32.20;31.82;101827.79;107312;1254;74592;-84
2023/05/22 05:41:56;;;;;;;;;;;;;;;29.51;32.61;101830.11;107387;1254;62541;-84
2023/05/22 05:47:22;;;;;;;;;;;;;;;27.33;33.72;101831.68;107906;1255;61196;-83
2023/05/22 05:49:53;;;;;;;;;;;;;;;26.38;34.68;101829.58;108273;1254;74669;-83
2023/05/22 05:52:25;;;;;;;;;;;;;;;25.64;35.22;101825.27;107741;1254;67497;-84
2023/05/22 05:54:59;;;;;;;;;;;;;;;25.10;35.90;101826.10;108444;1254;72683;-83
2023/05/22 05:57:28;;;;;;;;;;;;;;;24.57;36.04;101827.88;107538;1256;124081;-82
2023/05/22 05:59:55;;;;;;;;;;;;;;;24.10;36.58;101828.22;107584;1256;59843;-82
2023/05/22 06:02:23;;;;;;;;;;;;;;;23.77;36.65;101831.16;107440;1254;124668;-85
2023/05/22 06:04:57;;;;;;;;;;;;;;;23.48;37.01;101830.94;107614;1254;65597;-84
2023/05/22 06:07:27;;;;;;;;;;;;;;;23.23;37.20;101828.71;107659;1255;72675;-82
2023/05/22 06:10:08;;;;;;;;;;;;;;;22.91;37.32;101828.81;107578;1254;124371;-82
2023/05/22 06:12:43;;;;;;;;;;;;;;;22.65;37.58;101827.94;107777;1254;59372;-83
2023/05/22 06:15:12;;;;;;;;;;;;;;;22.50;38.27;101828.26;107773;1254;124177;-83
2023/05/22 06:17:40;;;;;;;;;;;;;;;22.29;38.32;101827.86;107989;1254;68569;-85
2023/05/22 06:20:08;;;;;;;;;;;;;;;22.01;38.43;101824.77;107916;1254;124244;-85
2023/05/22 06:22:34;;;;;;;;;;;;;;;21.88;38.90;101820.36;107605;1254;60895;-85
2023/05/22 06:25:05;;;;;;;;;;;;;;;21.71;38.94;101814.20;107621;1254;61211;-85
2023/05/22 06:27:32;;;;;;;;;;;;;;;21.54;39.32;101808.89;107517;1254;124050;-85
2023/05/22 06:30:01;;;;;;;;;;;;;;;21.43;39.65;101810.70;107560;1260;65778;-85
2023/05/22 06:32:28;;;;;;;;;;;;;;;21.34;39.81;101811.78;107401;1260;124357;-85
2023/05/22 06:34:58;;;;;;;;;;;;;;;21.27;39.96;101810.20;107692;1256;61247;-86
2023/05/22 06:37:45;;;;;;;;;;;;;;;21.23;40.21;101809.85;107531;1253;60431;-87
2023/05/22 06:40:32;;;;;;;;;;;;;;;21.15;40.31;101809.69;107557;1258;123872;-87
2023/05/22 06:43:00;;;;;;;;;;;;;;;21.00;40.36;101809.53;107662;1254;67052;-87
2023/05/22 06:45:29;;;;;;;;;;;;;;;20.96;40.58;101809.54;107659;1254;124344;-85
2023/05/22 06:47:56;;;;;;;;;;;;;;;20.93;40.75;101809.36;107937;1258;59981;-85
2023/05/22 06:50:24;;;;;;;;;;;;;;;20.90;40.82;101808.12;108118;1254;125427;-85
2023/05/22 06:52:51;;;;;;;;;;;;;;;20.83;40.76;101806.70;109071;1258;74504;-85
2023/05/22 06:55:18;;;;;;;;;;;;;;;20.78;40.92;101803.48;108934;1253;65257;-85
2023/05/22 06:57:45;;;;;;;;;;;;;;;20.77;41.17;101804.02;108956;1254;124398;-85
2023/05/22 07:00:14;;;;;;;;;;;;;;;20.75;41.16;101801.16;109148;1253;59005;-85
2023/05/22 07:02:41;;;;;;;;;;;;;;;20.71;41.25;101796.35;108865;1254;125140;-85
2023/05/22 07:05:08;;;;;;;;;;;;;;;20.65;41.27;101795.10;108249;1257;73138;-84
2023/05/22 07:07:35;;;;;;;;;;;;;;;20.56;41.30;101796.15;108156;1259;67325;-85
2023/05/22 07:10:09;;;;;;;;;;;;;;;20.53;41.60;101794.70;108080;1255;124083;-84
2023/05/22 07:12:36;;;;;;;;;;;;;;;20.55;41.66;101795.27;107861;1255;59252;-85
2023/05/22 07:15:03;;;;;;;;;;;;;;;20.57;41.79;101795.61;108119;1258;124062;-87
2023/05/22 07:17:30;;;;;;;;;;;;;;;20.53;41.84;101793.29;107902;1254;72799;-88
2023/05/22 07:20:00;;;;;;;;;;;;;;;20.51;41.90;101795.08;107888;1254;124753;-87
2023/05/22 07:22:28;;;;;;;;;;;;;;;20.48;41.86;101792.76;108166;1255;71395;-88
2023/05/22 07:24:55;;;;;;;;;;;;;;;20.48;42.25;101793.11;108085;1254;59684;-88
2023/05/22 07:27:22;;;;;;;;;;;;;;;20.49;42.45;101790.42;108133;1254;124221;-89
2023/05/22 07:29:48;;;;;;;;;;;;;;;20.51;42.57;101793.80;107935;1254;74701;-87
2023/05/22 07:32:15;;;;;;;;;;;;;;;20.53;42.67;101792.58;107856;1254;124284;-89
2023/05/22 07:34:43;;;;;;;;;;;;;;;20.56;42.77;101795.07;108006;1257;71179;-88
2023/05/22 07:37:11;;;;;;;;;;;;;;;20.59;42.83;101792.77;108045;1254;61375;-87
2023/05/22 07:39:38;;;;;;;;;;;;;;;20.57;42.75;101792.75;108132;1254;124456;-87
2023/05/22 07:42:05;;;;;;;;;;;;;;;20.54;42.68;101792.75;108516;1254;72739;-87
2023/05/22 07:44:33;;;;;;;;;;;;;;;20.56;42.91;101790.61;108093;1254;124986;-88
2023/05/22 07:47:22;;;;;;;;;;;;;;;20.64;42.61;101789.21;107960;1257;71397;-88
2023/05/22 07:49:49;;;;;;;;;;;;;;;20.70;42.33;101786.18;108192;1256;59980;-88
2023/05/22 07:52:24;;;;;;;;;;;;;;;20.74;42.22;101785.99;107835;1257;124058;-88
2023/05/22 07:54:57;;;;;;;;;;;;;;;20.80;42.25;101781.38;107687;1254;74734;-88
2023/05/22 07:57:37;;;;;;;;;;;;;;;20.89;42.20;101784.56;107604;1255;124289;-87
2023/05/22 08:00:17;;;;;;;;;;;;;;;20.98;41.86;101779.55;107569;1254;72685;-87
2023/05/22 08:02:44;;;;;;;;;;;;;;;21.05;41.52;101780.80;107504;1253;124123;-87
2023/05/22 08:05:23;;;;;;;;;;;;;;;21.11;41.39;101781.31;107708;1257;60374;-87
2023/05/22 08:08:04;;;;;;;;;;;;;;;21.21;41.66;101780.58;107775;1254;74802;-87
2023/05/22 08:10:40;;;;;;;;;;;;;;;21.29;41.44;101778.95;108055;1254;67012;-87
2023/05/22 08:13:21;;;;;;;;;;;;;;;21.36;41.53;101778.56;108042;1253;71989;-87
2023/05/22 08:15:55;;;;;;;;;;;;;;;21.41;41.51;101776.05;107808;1253;124179;-86
2023/05/22 08:18:22;;;;;;;;;;;;;;;21.47;41.66;101776.60;108136;1254;61224;-85
2023/05/22 08:20:51;;;;;;;;;;;;;;;21.51;41.14;101774.08;107756;1254;124042;-86
2023/05/22 08:23:18;;;;;;;;;;;;;;;21.51;40.64;101776.21;107816;1254;67044;-86
2023/05/22 08:25:51;;;;;;;;;;;;;;;21.48;40.33;101775.52;108011;1254;72749;-87
2023/05/22 08:28:30;;;;;;;;;;;;;;;21.48;40.48;101776.23;107846;1254;124110;-86
2023/05/22 08:31:04;;;;;;;;;;;;;;;21.53;40.54;101771.39;107793;1256;60461;-85
2023/05/22 08:33:35;;;;;;;;;;;;;;;21.58;40.48;101770.66;107704;1254;124059;-87
2023/05/22 08:36:03;;;;;;;;;;;;;;;21.63;40.17;101765.27;107941;1257;65575;-87
2023/05/22 08:38:37;;;;;;;;;;;;;;;21.69;40.35;101768.64;107876;1256;123207;-87
2023/05/22 08:41:04;;;;;;;;;;;;;;;21.73;40.34;101767.91;107671;1261;62181;-86
2023/05/22 08:43:31;;;;;;;;;;;;;;;21.75;40.16;101765.41;107959;1254;59512;-89
2023/05/22 08:46:04;;;;;;;;;;;;;;;21.79;40.11;101763.77;107717;1254;124038;-87
2023/05/22 08:48:40;;;;;;;;;;;;;;;21.83;40.02;101761.61;107709;1254;67886;-87
2023/05/22 08:51:30;;;;;;;;;;;;;;;21.89;39.41;101762.11;107706;1257;124151;-87
2023/05/22 08:53:57;;;;;;;;;;;;;;;21.93;38.79;101762.08;107716;1258;60505;-88
2023/05/22 08:56:24;;;;;;;;;;;;;;;21.93;38.95;101759.94;107327;1254;124537;-87
2023/05/22 08:59:05;;;;;;;;;;;;;;;21.95;39.21;101757.06;107468;1258;73342;-87
2023/05/22 09:01:32;;;;;;;;;;;;;;;22.00;39.48;101755.96;107696;1254;65860;-88
2023/05/22 09:04:00;;;;;;;;;;;;;;;22.02;39.36;101756.85;107758;1254;124091;-87
2023/05/22 09:06:30;;;;;;;;;;;;;;;22.03;38.80;101757.38;107700;1257;61205;-88
2023/05/22 09:09:10;;;;;;;;;;;;;;;22.03;38.38;101753.81;107474;1255;124134;-86
2023/05/22 09:11:38;;;;;;;;;;;;;;;22.07;38.10;101746.80;107528;1254;73599;-87
2023/05/22 09:14:19;;;;;;;;;;;;;;;22.11;38.01;101747.13;107420;1254;124376;-87
2023/05/22 09:16:49;;;;;;;;;;;;;;;22.15;38.63;101748.35;107758;1254;71178;-90
2023/05/22 09:19:17;;;;;;;;;;;;;;;22.16;38.27;101743.70;107634;1257;61445;-89
2023/05/22 09:21:46;;;;;;;;;;;;;;;22.17;38.06;101740.29;107668;1262;124797;-86
2023/05/22 09:24:14;;;;;;;;;;;;;;;22.14;38.12;101738.36;107710;1260;73376;-86
2023/05/22 09:27:02;;;;;;;;;;;;;;;22.13;38.08;101733.90;107568;1254;124241;-86
2023/05/22 09:29:30;;;;;;;;;;;;;;;22.15;38.15;101733.51;107802;1255;71376;-87
2023/05/22 09:32:00;;;;;;;;;;;;;;;22.23;38.14;101733.99;107723;1254;61333;-86
2023/05/22 09:34:28;;;;;;;;;;;;;;;22.31;37.90;101728.96;108017;1254;61202;-86
2023/05/22 09:37:04;;;;;;;;;;;;;;;22.39;36.92;101733.90;107739;1254;73421;-88
2023/05/22 09:39:43;;;;;;;;;;;;;;;22.41;36.15;101731.03;107757;1254;124245;-88
2023/05/22 09:42:11;;;;;;;;;;;;;;;22.43;36.25;101725.64;107894;1254;72427;-88
2023/05/22 09:44:41;;;;;;;;;;;;;;;22.50;36.46;101727.19;107741;1254;124349;-87
2023/05/22 09:47:11;;;;;;;;;;;;;;;22.62;36.05;101724.58;107888;1257;60666;-88
2023/05/22 09:49:44;;;;;;;;;;;;;;;22.72;35.75;101724.65;108038;1254;74394;-88
2023/05/22 09:52:11;;;;;;;;;;;;;;;22.86;35.30;101725.58;107898;1256;124143;-89
2023/05/22 09:54:42;;;;;;;;;;;;;;;22.97;34.97;101720.29;108271;1261;71271;-88
2023/05/22 09:57:13;;;;;;;;;;;;;;;23.09;35.12;101717.31;108845;1254;124336;-88
2023/05/22 09:59:40;;;;;;;;;;;;;;;23.26;34.87;101709.23;108048;1255;61216;-90
2023/05/22 10:02:07;;;;;;;;;;;;;;;23.39;35.29;101700.30;107778;1260;124294;-89
2023/05/22 10:04:41;;;;;;;;;;;;;;;23.53;35.01;101706.20;107625;1254;66757;-90
2023/05/22 10:07:17;;;;;;;;;;;;;;;23.59;34.75;101705.94;107878;1253;70121;-89
2023/05/22 10:09:49;;;;;;;;;;;;;;;23.64;34.70;101702.47;107589;1260;124116;-90
2023/05/22 10:12:23;;;;;;;;;;;;;;;23.65;34.93;101700.84;107747;1254;61243;-90
2023/05/22 10:14:51;;;;;;;;;;;;;;;23.42;35.99;101693.61;107640;1254;124328;-91
2023/05/22 10:17:18;;;;;;;;;;;;;;;23.13;36.42;101690.58;107552;1260;67932;-89
2023/05/22 10:19:54;;;;;;;;;;;;;;;22.92;37.01;101695.45;108130;1257;71784;-90
2023/05/22 10:22:24;;;;;;;;;;;;;;;22.80;37.53;101695.40;108525;1257;124479;-89
2023/05/22 10:24:51;;;;;;;;;;;;;;;22.72;37.63;101690.48;107821;1259;61167;-88
2023/05/22 10:27:19;;;;;;;;;;;;;;;22.64;37.44;101692.88;107484;1255;124113;-90
2023/05/22 10:29:49;;;;;;;;;;;;;;;22.48;37.37;101683.38;107681;1253;65798;-87
2023/05/22 10:32:26;;;;;;;;;;;;;;;22.26;37.19;101690.00;107373;1260;124228;-87
2023/05/22 10:34:59;;;;;;;;;;;;;;;22.06;36.92;101686.94;107615;1254;61737;-89
2023/05/22 10:37:32;;;;;;;;;;;;;;;21.97;36.73;101684.86;107670;1254;61360;-88
2023/05/22 10:40:06;;;;;;;;;;;;;;;21.92;36.14;101679.52;107699;1255;124337;-90
2023/05/22 10:42:33;;;;;;;;;;;;;;;21.93;35.92;101678.10;107818;1254;65760;-87
2023/05/22 10:45:03;;;;;;;;;;;;;;;21.95;35.59;101678.44;107560;1254;124186;-87
2023/05/22 10:47:31;;;;;;;;;;;;;;;21.92;35.75;101677.92;107770;1254;61391;-88
2023/05/22 10:50:03;;;;;;;;;;;;;;;21.93;35.45;101680.40;107579;1254;61096;-87
2023/05/22 10:52:44;;;;;;;;;;;;;;;21.92;34.80;101674.34;107691;1258;74378;-87
2023/05/22 10:55:11;;;;;;;;;;;;;;;21.90;35.30;101671.86;107911;1254;67316;-86
2023/05/22 10:57:38;;;;;;;;;;;;;;;21.90;35.57;101669.36;107981;1259;124094;-88
2023/05/22 11:00:13;;;;;;;;;;;;;;;21.87;35.22;101674.73;107676;1260;61129;-85
2023/05/22 11:02:48;;;;;;;;;;;;;;;21.84;35.80;101677.63;107476;1254;124479;-86
2023/05/22 11:05:21;;;;;;;;;;;;;;;21.83;35.89;101672.80;108055;1254;76110;-87
2023/05/22 11:07:48;;;;;;;;;;;;;;;21.85;35.55;101670.11;108194;1254;65855;-87
2023/05/22 11:10:28;;;;;;;;;;;;;;;21.88;36.66;101669.19;108261;1257;124024;-88
2023/05/22 11:13:02;;;;;;;;;;;;;;;21.89;37.63;101666.86;108178;1259;61199;-89
2023/05/22 11:15:29;;;;;;;;;;;;;;;21.85;38.06;101666.55;108067;1258;124589;-87
2023/05/22 11:17:56;;;;;;;;;;;;;;;21.72;38.12;101660.20;108485;1258;72866;-86
2023/05/22 11:20:24;;;;;;;;;;;;;;;21.68;38.53;101658.97;108065;1262;124302;-88
2023/05/22 11:22:58;;;;;;;;;;;;;;;21.69;38.72;101660.39;107861;1260;72369;-88
2023/05/22 11:25:25;;;;;;;;;;;;;;;21.67;38.93;101657.73;107815;1260;61257;-88
2023/05/22 11:27:53;;;;;;;;;;;;;;;21.58;38.83;101656.89;107787;1254;124242;-87
2023/05/22 11:30:25;;;;;;;;;;;;;;;21.56;39.10;101655.48;108062;1254;73033;-88
2023/05/22 11:32:53;;;;;;;;;;;;;;;21.54;39.07;101658.35;107945;1259;124154;-88
2023/05/22 11:35:20;;;;;;;;;;;;;;;21.52;39.14;101658.54;108031;1254;71131;-90
2023/05/22 11:37:48;;;;;;;;;;;;;;;21.50;39.19;101660.86;107992;1260;61317;-88
2023/05/22 11:40:15;;;;;;;;;;;;;;;21.48;39.00;101658.38;107747;1254;124308;-88
2023/05/22 11:42:44;;;;;;;;;;;;;;;21.47;38.46;101654.81;107952;1258;73840;-87
2023/05/22 11:45:11;;;;;;;;;;;;;;;21.46;38.16;101654.29;107567;1256;124623;-88
2023/05/22 11:47:38;;;;;;;;;;;;;;;21.48;38.35;101654.27;108311;1254;72915;-88
2023/05/22 11:50:11;;;;;;;;;;;;;;;21.48;38.15;101656.95;107823;1257;124364;-85
2023/05/22 11:52:39;;;;;;;;;;;;;;;21.46;38.13;101651.60;108141;1259;60133;-88
2023/05/22 11:55:10;;;;;;;;;;;;;;;21.49;38.22;101651.59;107856;1260;74719;-87
2023/05/22 11:57:37;;;;;;;;;;;;;;;21.58;38.31;101652.42;107650;1257;124193;-87
2023/05/22 12:00:08;;;;;;;;;;;;;;;21.63;38.12;101650.60;107747;1254;72671;-87
2023/05/22 12:02:35;;;;;;;;;;;;;;;21.63;37.69;101646.86;108044;1260;124267;-88
2023/05/22 12:05:16;;;;;;;;;;;;;;;21.66;37.14;101645.77;107820;1254;59830;-91
2023/05/22 12:07:46;;;;;;;;;;;;;;;21.70;36.93;101646.45;107839;1254;74725;-90
2023/05/22 12:10:14;;;;;;;;;;;;;;;21.69;36.58;101643.78;107722;1253;124452;-88
2023/05/22 12:12:42;;;;;;;;;;;;;;;21.65;36.34;101637.20;108081;1257;71463;-87
2023/05/22 12:15:10;;;;;;;;;;;;;;;21.64;36.20;101641.13;107618;1266;124223;-88
2023/05/22 12:17:37;;;;;;;;;;;;;;;21.62;36.18;101634.89;107669;1260;342633;-86
2023/05/22 12:20:05;;;;;;;;;;;;;;;21.62;36.27;101637.21;107608;1262;123493;-87
2023/05/22 12:22:32;;;;;;;;;;;;;;;21.64;36.14;101640.23;107681;1255;67798;-88
2023/05/22 12:24:59;;;;;;;;;;;;;;;21.63;35.92;101630.78;107733;1258;70757;-87
2023/05/22 12:27:32;;;;;;;;;;;;;;;21.66;35.91;101634.86;107597;1258;124332;-87
2023/05/22 12:30:07;;;;;;;;;;;;;;;21.62;35.79;101631.67;108072;1254;61188;-87
2023/05/22 12:32:34;;;;;;;;;;;;;;;21.62;35.90;101631.85;108778;1259;124171;-87
2023/05/22 12:35:01;;;;;;;;;;;;;;;21.63;35.86;101624.89;108787;1256;66759;-88
2023/05/22 12:37:28;;;;;;;;;;;;;;;21.65;35.85;101628.45;107794;1255;71040;-87
2023/05/22 12:39:58;;;;;;;;;;;;;;;21.67;35.73;101630.58;107619;1254;124558;-86
2023/05/22 12:42:26;;;;;;;;;;;;;;;21.64;35.69;101626.66;108124;1254;60066;-87
2023/05/22 12:44:55;;;;;;;;;;;;;;;21.64;36.06;101624.88;107990;1255;124208;-87
2023/05/22 12:47:23;;;;;;;;;;;;;;;21.70;35.74;101623.95;107936;1258;64915;-87
2023/05/22 12:49:50;;;;;;;;;;;;;;;21.72;35.66;101621.61;107860;1254;72587;-85
2023/05/22 12:52:17;;;;;;;;;;;;;;;21.78;35.67;101621.73;107891;1256;125132;-85
2023/05/22 12:54:44;;;;;;;;;;;;;;;21.83;35.73;101619.92;107979;1258;61125;-86
2023/05/22 12:57:12;;;;;;;;;;;;;;;21.84;36.01;101614.73;107836;1254;124801;-85
2023/05/22 12:59:39;;;;;;;;;;;;;;;21.91;35.97;101616.27;108116;1254;67058;-88
2023/05/22 13:02:07;;;;;;;;;;;;;;;21.93;36.15;101611.25;107553;1254;72700;-89
2023/05/22 13:04:41;;;;;;;;;;;;;;;21.98;36.08;101610.86;107636;1259;60363;-89
2023/05/22 13:07:08;;;;;;;;;;;;;;;22.04;35.70;101614.73;107937;1254;59822;-88
2023/05/22 13:09:36;;;;;;;;;;;;;;;21.99;35.08;101614.06;107534;1257;124232;-88
2023/05/22 13:12:09;;;;;;;;;;;;;;;21.94;35.01;101609.28;107849;1254;67281;-90
2023/05/22 13:14:39;;;;;;;;;;;;;;;21.92;34.68;101605.19;107563;1257;124434;-91
2023/05/22 13:17:10;;;;;;;;;;;;;;;21.93;34.74;101606.79;107326;1257;61324;-90